메인 페이지
METAR-TAF:

METAR-TAF

공항 :

애머릴로, 텍사스, 미국

위도: 35-13-12N, 경도: 101-43-02W, 고도: 1099m

현재 날씨관측

예보는 49분 전, 13:53시(UTC)에 발표되었습니다.
남서8kt
온도 21°C
습도 56%
기압 1026 hPa
시정: 16.1km
맑음

METAR: KAMA 291353Z 23008KT 10SM CLR 21/12 A3031 RMK AO2 SLP218 T02060117

시각: 09:42 (14:42 UTC)

예보

예보는 3 시간 21분 전, 11:21시(UTC)에 발표되었습니다.
예보 대상 시간: 29일 12시부터 30일 12시까지 (UTC)
여러 방향의 바람 4kt
시정: 10km
고도 25000ft 상공 구름 보통
29일 2100시부터 (UTC)
12kt
시정: 10km
맑음

TAF: KAMA 291121Z 2912/3012 VRB04KT P6SM SCT250 FM292100 18012KT P6SM SKC

4,000개 이상의 공항 관측 자료 및 예보 (METAR 및 TAF 보고).

지도상에서 검색 가능한 기상관측소가 노란 점과 빨간 점으로 표시되어 있습니다.

기상관측소 명을 보려면 표시 위로 마우스를 이동하세요.

날씨 관측과 예보를 보려면 클릭하세요.

지도 변경 : 확대하려면 엑스 표시가 있는 녹색 버튼, 축소하려면 빼기 표시가 있는 녹색 버튼, 다음 페이지의 지도를 보려면 녹색 화살표를 클릭하세요.


METAR-TAF: